createdAt,value
2023-05-27T00:01:13.931Z,39.90
2023-05-27T00:03:41.634Z,40.00
2023-05-27T00:06:10.953Z,40.00
2023-05-27T00:08:40.316Z,40.00
2023-05-27T00:11:07.189Z,40.20
2023-05-27T00:13:36.674Z,40.10
2023-05-27T00:16:06.851Z,40.30
2023-05-27T00:18:36.922Z,40.30
2023-05-27T00:21:04.219Z,40.30
2023-05-27T00:23:35.980Z,40.40
2023-05-27T00:26:07.702Z,40.50
2023-05-27T00:28:34.642Z,40.80
2023-05-27T00:31:04.159Z,40.50
2023-05-27T00:33:33.520Z,40.70
2023-05-27T00:36:03.808Z,40.80
2023-05-27T00:38:30.848Z,40.80
2023-05-27T00:41:04.872Z,40.70
2023-05-27T00:43:35.282Z,41.00
2023-05-27T00:46:04.627Z,40.80
2023-05-27T00:48:34.469Z,41.00
2023-05-27T00:51:06.794Z,40.90
2023-05-27T00:53:45.316Z,41.10
2023-05-27T00:56:17.004Z,41.70
2023-05-27T00:58:47.236Z,41.00
2023-05-27T01:01:14.666Z,41.20
2023-05-27T01:03:43.154Z,41.20
2023-05-27T01:06:56.778Z,41.20
2023-05-27T01:09:38.669Z,42.10
2023-05-27T01:12:16.983Z,41.90
2023-05-27T01:14:46.762Z,41.40
2023-05-27T01:17:17.204Z,41.40
2023-05-27T01:19:54.209Z,41.50
2023-05-27T01:22:26.940Z,41.70
2023-05-27T01:24:57.046Z,41.60
2023-05-27T01:27:27.036Z,41.90
2023-05-27T01:29:58.220Z,42.40
2023-05-27T01:32:55.990Z,41.80
2023-05-27T01:35:28.280Z,42.70
2023-05-27T01:37:59.265Z,42.00
2023-05-27T01:40:29.724Z,42.50
2023-05-27T01:47:06.853Z,42.70
2023-05-27T01:49:36.444Z,41.90
2023-05-27T01:52:06.797Z,42.20
2023-05-27T01:54:38.621Z,42.40
2023-05-27T01:57:07.374Z,42.30
2023-05-27T01:59:34.421Z,42.40
2023-05-27T02:02:01.421Z,42.50
2023-05-27T02:04:28.258Z,43.20
2023-05-27T02:06:57.787Z,42.60
2023-05-27T02:09:30.551Z,42.70
2023-05-27T02:11:57.467Z,42.90
2023-05-27T02:14:24.913Z,42.80
2023-05-27T02:16:59.604Z,42.90
2023-05-27T02:19:28.881Z,42.90
2023-05-27T02:22:00.584Z,43.00
2023-05-27T02:24:29.589Z,43.00
2023-05-27T02:27:01.096Z,43.10
2023-05-27T02:29:30.749Z,43.20
2023-05-27T02:32:00.617Z,43.20
2023-05-27T02:34:27.777Z,43.30
2023-05-27T02:36:57.572Z,43.30
2023-05-27T02:39:24.434Z,43.40
2023-05-27T02:41:56.282Z,43.50
2023-05-27T02:44:26.749Z,43.70
2023-05-27T02:46:55.954Z,43.80
2023-05-27T02:49:25.068Z,43.70
2023-05-27T02:51:54.155Z,43.70
2023-05-27T02:54:23.487Z,43.80
2023-05-27T02:56:50.368Z,43.90
2023-05-27T02:59:21.897Z,44.00
2023-05-27T03:01:48.974Z,44.00
2023-05-27T03:04:19.054Z,44.10
2023-05-27T03:06:50.437Z,44.20
2023-05-27T03:09:19.700Z,44.20
2023-05-27T03:11:50.965Z,44.40
2023-05-27T03:14:22.601Z,44.30
2023-05-27T03:16:49.549Z,44.50
2023-05-27T03:19:16.495Z,44.40
2023-05-27T03:21:53.556Z,44.50
2023-05-27T03:24:22.786Z,44.50
2023-05-27T03:26:52.570Z,44.60
2023-05-27T03:29:19.767Z,44.70
2023-05-27T03:31:48.013Z,44.70
2023-05-27T03:34:20.194Z,44.80
2023-05-27T03:36:47.110Z,44.90
2023-05-27T03:39:21.002Z,44.90
2023-05-27T03:41:54.362Z,45.10
2023-05-27T03:44:21.346Z,45.10
2023-05-27T03:46:48.224Z,45.10
2023-05-27T03:49:17.570Z,45.20
2023-05-27T03:51:49.248Z,45.30
2023-05-27T03:54:23.252Z,45.60
2023-05-27T03:56:52.052Z,45.50
2023-05-27T03:59:19.000Z,45.40
2023-05-27T04:01:48.351Z,45.60
2023-05-27T04:04:15.516Z,45.70
2023-05-27T04:06:43.067Z,45.70
2023-05-27T04:09:10.147Z,45.80
2023-05-27T04:11:41.773Z,45.80
2023-05-27T04:14:11.040Z,46.00
2023-05-27T04:16:42.400Z,46.00
2023-05-27T04:19:09.550Z,46.10
2023-05-27T04:21:38.953Z,46.00
2023-05-27T04:24:06.484Z,46.20
2023-05-27T04:26:38.467Z,46.00
2023-05-27T04:29:10.445Z,46.20
2023-05-27T04:31:40.558Z,46.30
2023-05-27T04:34:21.227Z,46.30
2023-05-27T04:36:50.882Z,46.50
2023-05-27T04:39:24.237Z,46.40
2023-05-27T04:41:53.421Z,46.40
2023-05-27T04:44:22.759Z,46.70
2023-05-27T04:46:51.367Z,46.60
2023-05-27T04:49:20.377Z,46.60
2023-05-27T04:51:48.345Z,46.60
2023-05-27T04:54:19.253Z,46.70
2023-05-27T04:56:46.263Z,46.80
2023-05-27T04:59:22.725Z,46.70
2023-05-27T05:02:10.636Z,46.90
2023-05-27T05:04:46.794Z,46.90
2023-05-27T05:07:14.515Z,46.80
2023-05-27T05:09:46.693Z,46.90
2023-05-27T05:12:22.709Z,47.10
2023-05-27T05:14:57.674Z,47.00
2023-05-27T05:17:25.633Z,47.10
2023-05-27T05:19:56.203Z,47.10
2023-05-27T05:22:28.288Z,47.10
2023-05-27T05:24:55.413Z,47.20
2023-05-27T05:27:30.460Z,47.20
2023-05-27T05:29:58.377Z,47.20
2023-05-27T05:32:30.449Z,47.30
2023-05-27T05:35:03.020Z,47.20
2023-05-27T05:37:34.142Z,47.40
2023-05-27T05:40:06.949Z,47.30
2023-05-27T05:42:37.701Z,47.30
2023-05-27T05:45:12.725Z,47.30
2023-05-27T05:47:45.393Z,47.40
2023-05-27T05:50:19.937Z,47.40
2023-05-27T05:52:51.673Z,47.50
2023-05-27T05:55:23.671Z,47.50
2023-05-27T05:57:55.365Z,47.70
2023-05-27T06:00:28.432Z,47.50
2023-05-27T06:03:12.738Z,47.50
2023-05-27T06:05:59.891Z,47.70
2023-05-27T06:08:31.740Z,47.50
2023-05-27T06:11:15.594Z,47.60
2023-05-27T06:13:49.415Z,47.60
2023-05-27T06:16:21.364Z,47.80
2023-05-27T06:18:48.459Z,47.80
2023-05-27T06:21:15.747Z,47.60
2023-05-27T06:24:05.930Z,47.60
2023-05-27T06:26:38.676Z,47.70
2023-05-27T06:29:07.748Z,47.70
2023-05-27T06:31:34.668Z,47.70
2023-05-27T06:34:04.656Z,47.80
2023-05-27T06:36:35.239Z,47.70
2023-05-27T06:39:04.803Z,47.70
2023-05-27T06:41:34.860Z,47.80
2023-05-27T06:44:35.966Z,47.80
2023-05-27T06:47:11.972Z,47.70
2023-05-27T06:49:41.194Z,47.80
2023-05-27T06:52:11.849Z,47.70
2023-05-27T06:55:02.250Z,47.80
2023-05-27T06:57:50.169Z,47.70
2023-05-27T07:00:28.385Z,47.70
2023-05-27T07:03:14.215Z,47.60
2023-05-27T07:05:43.413Z,47.70
2023-05-27T07:08:18.808Z,47.80
2023-05-27T07:10:51.458Z,47.80
2023-05-27T07:13:18.801Z,47.80
2023-05-27T07:15:52.214Z,47.80
2023-05-27T07:18:21.324Z,47.80
2023-05-27T07:20:52.327Z,47.80
2023-05-27T07:23:19.865Z,47.80
2023-05-27T07:25:54.945Z,47.70
2023-05-27T07:28:26.564Z,47.70
2023-05-27T07:31:06.750Z,47.70
2023-05-27T07:33:41.784Z,47.90
2023-05-27T07:36:11.422Z,47.80
2023-05-27T07:38:38.281Z,47.80
2023-05-27T07:41:05.274Z,47.60
2023-05-27T07:43:32.886Z,48.30
2023-05-27T07:45:59.738Z,47.50
2023-05-27T07:48:28.865Z,48.10
2023-05-27T07:50:56.586Z,47.30
2023-05-27T07:53:23.753Z,47.20
2023-05-27T07:55:51.129Z,47.10
2023-05-27T07:58:18.418Z,47.10
2023-05-27T08:01:04.803Z,47.20
2023-05-27T08:03:33.901Z,47.10
2023-05-27T08:06:27.355Z,46.90
2023-05-27T08:09:09.398Z,46.90
2023-05-27T08:11:43.483Z,46.90
2023-05-27T08:14:36.542Z,47.00
2023-05-27T08:17:22.308Z,46.90
2023-05-27T08:20:18.918Z,46.80
2023-05-27T08:22:59.269Z,46.70
2023-05-27T08:25:44.570Z,46.70
2023-05-27T08:28:37.888Z,46.70
2023-05-27T08:31:34.971Z,46.70
2023-05-27T08:34:03.897Z,46.60
2023-05-27T08:36:34.128Z,46.50
2023-05-27T08:39:01.224Z,46.50
2023-05-27T08:41:33.798Z,46.50
2023-05-27T08:44:20.519Z,46.40
2023-05-27T08:46:52.657Z,46.30
2023-05-27T08:49:22.803Z,46.30
2023-05-27T08:51:54.755Z,46.20
2023-05-27T08:54:29.254Z,46.20
2023-05-27T08:57:08.130Z,46.10
2023-05-27T08:59:36.638Z,46.00
2023-05-27T09:02:12.913Z,45.90
2023-05-27T09:04:42.932Z,46.00
2023-05-27T09:07:11.921Z,45.80
2023-05-27T09:09:41.021Z,45.60
2023-05-27T09:12:23.161Z,45.60
2023-05-27T09:14:51.863Z,45.50
2023-05-27T09:17:24.993Z,45.50
2023-05-27T09:19:59.020Z,45.30
2023-05-27T09:22:35.691Z,45.30
2023-05-27T09:25:02.825Z,45.10
2023-05-27T09:27:33.814Z,45.20
2023-05-27T09:30:09.799Z,45.00
2023-05-27T09:32:37.142Z,45.00
2023-05-27T09:35:08.644Z,45.00
2023-05-27T09:37:41.339Z,44.40
2023-05-27T09:40:11.098Z,44.30
2023-05-27T09:42:46.801Z,44.20
2023-05-27T09:45:21.839Z,44.00
2023-05-27T09:47:57.180Z,43.90
2023-05-27T09:50:24.097Z,44.00
2023-05-27T09:53:06.365Z,43.90
2023-05-27T09:55:43.633Z,43.70
2023-05-27T09:58:16.981Z,43.50
2023-05-27T10:00:51.938Z,43.50
2023-05-27T10:03:29.721Z,43.20
2023-05-27T10:05:57.370Z,42.90
2023-05-27T10:08:28.036Z,42.90
2023-05-27T10:10:55.834Z,43.10
2023-05-27T10:13:25.941Z,43.00
2023-05-27T10:15:53.873Z,43.00
2023-05-27T10:18:30.249Z,43.00
2023-05-27T10:21:05.263Z,42.70
2023-05-27T10:23:35.084Z,42.50
2023-05-27T10:26:05.017Z,42.70
2023-05-27T10:28:37.502Z,42.70
2023-05-27T10:31:22.880Z,42.60
2023-05-27T10:33:58.669Z,41.90
2023-05-27T10:36:33.224Z,42.90
2023-05-27T10:39:14.501Z,41.80
2023-05-27T10:42:01.005Z,42.00
2023-05-27T10:44:40.888Z,41.80
2023-05-27T10:47:14.977Z,41.60
2023-05-27T10:49:50.141Z,41.40
2023-05-27T10:52:20.012Z,41.10
2023-05-27T10:54:53.010Z,41.10
2023-05-27T10:57:23.383Z,41.10
2023-05-27T10:59:59.070Z,41.10
2023-05-27T11:02:40.431Z,40.70
2023-05-27T11:05:15.028Z,40.40
2023-05-27T11:07:44.425Z,40.10
2023-05-27T11:10:14.355Z,40.30
2023-05-27T11:12:46.430Z,40.10
2023-05-27T11:15:13.428Z,39.70
2023-05-27T11:17:40.400Z,39.60
2023-05-27T11:20:09.807Z,39.30
2023-05-27T11:22:38.216Z,38.80
2023-05-27T11:25:07.125Z,38.90
2023-05-27T11:27:42.388Z,38.70
2023-05-27T11:30:14.027Z,38.00
2023-05-27T11:32:48.137Z,38.00
2023-05-27T11:35:22.520Z,37.90
2023-05-27T11:37:53.047Z,38.20
2023-05-27T11:40:22.282Z,37.70
2023-05-27T11:42:53.809Z,37.80
2023-05-27T11:45:23.306Z,37.60
2023-05-27T11:47:54.709Z,37.40
2023-05-27T11:50:25.881Z,36.90
2023-05-27T11:52:59.431Z,36.70
2023-05-27T11:55:30.975Z,35.90
2023-05-27T11:57:57.911Z,36.10
2023-05-27T12:00:31.761Z,35.80
2023-05-27T12:03:05.862Z,35.20
2023-05-27T12:05:35.171Z,35.30
2023-05-27T12:08:02.687Z,35.00
2023-05-27T12:10:29.619Z,34.90
2023-05-27T12:13:08.774Z,34.70
2023-05-27T12:15:40.595Z,33.90
2023-05-27T12:18:12.267Z,33.90
2023-05-27T12:20:41.561Z,34.00
2023-05-27T12:23:13.570Z,33.70
2023-05-27T12:25:41.112Z,33.10
2023-05-27T12:28:16.312Z,33.00
2023-05-27T12:30:49.821Z,32.60
2023-05-27T12:33:19.327Z,32.70
2023-05-27T12:35:48.931Z,31.90
2023-05-27T12:38:18.685Z,32.90
2023-05-27T12:40:47.635Z,31.80
2023-05-27T12:43:18.143Z,31.40
2023-05-27T12:45:49.983Z,31.30
2023-05-27T12:48:18.755Z,31.50
2023-05-27T12:50:49.118Z,30.90
2023-05-27T12:53:18.726Z,30.80
2023-05-27T12:55:48.171Z,30.70
2023-05-27T12:58:17.587Z,30.50
2023-05-27T13:00:49.641Z,30.40
2023-05-27T13:03:17.344Z,30.00
2023-05-27T13:05:46.936Z,30.20
2023-05-27T13:08:16.503Z,29.90
2023-05-27T13:10:45.946Z,29.90
2023-05-27T13:13:21.448Z,29.60
2023-05-27T13:15:48.922Z,29.60
2023-05-27T13:18:18.267Z,29.50
2023-05-27T13:20:45.878Z,29.50
2023-05-27T13:23:15.519Z,29.40
2023-05-27T13:25:44.780Z,29.20
2023-05-27T13:28:16.082Z,29.00
2023-05-27T13:30:45.472Z,28.90
2023-05-27T13:33:17.006Z,28.90
2023-05-27T13:35:46.002Z,28.80
2023-05-27T13:38:17.519Z,28.40
2023-05-27T13:40:46.549Z,28.20
2023-05-27T13:43:16.034Z,28.20
2023-05-27T13:45:45.250Z,27.80
2023-05-27T13:48:14.199Z,28.10
2023-05-27T13:50:43.523Z,27.70
2023-05-27T13:53:10.701Z,27.70
2023-05-27T13:55:39.925Z,27.60
2023-05-27T13:58:08.931Z,27.60
2023-05-27T14:00:38.798Z,27.40
2023-05-27T14:03:05.675Z,27.40
2023-05-27T14:05:33.394Z,27.20
2023-05-27T14:08:02.492Z,27.30
2023-05-27T14:10:35.379Z,27.20
2023-05-27T14:13:06.994Z,27.00
2023-05-27T14:15:35.081Z,27.00
2023-05-27T14:18:02.608Z,26.90
2023-05-27T14:20:35.126Z,27.00
2023-05-27T14:23:05.312Z,26.60
2023-05-27T14:25:32.170Z,26.50
2023-05-27T14:28:05.243Z,26.30
2023-05-27T14:30:37.011Z,26.20
2023-05-27T14:33:09.893Z,26.30
2023-05-27T14:35:45.698Z,26.20
2023-05-27T14:38:18.795Z,26.10
2023-05-27T14:40:48.639Z,26.10
2023-05-27T14:43:17.718Z,26.10
2023-05-27T14:45:44.603Z,26.10
2023-05-27T14:48:13.557Z,26.00
2023-05-27T14:50:45.290Z,26.00
2023-05-27T14:53:17.553Z,25.80
2023-05-27T14:55:44.488Z,25.80
2023-05-27T14:58:13.815Z,25.60
2023-05-27T15:00:46.948Z,25.60
2023-05-27T15:03:17.232Z,25.60
2023-05-27T15:05:48.738Z,25.40
2023-05-27T15:08:18.245Z,25.30
2023-05-27T15:10:49.998Z,25.40
2023-05-27T15:13:20.551Z,25.30
2023-05-27T15:15:50.349Z,25.20
2023-05-27T15:18:17.676Z,25.30
2023-05-27T15:20:44.800Z,25.30
2023-05-27T15:23:11.845Z,25.30
2023-05-27T15:25:40.955Z,25.30
2023-05-27T15:28:12.882Z,25.10
2023-05-27T15:30:47.679Z,24.90
2023-05-27T15:33:17.127Z,25.10
2023-05-27T15:35:46.801Z,24.90
2023-05-27T15:38:15.904Z,25.00
2023-05-27T15:40:45.492Z,25.00
2023-05-27T15:43:12.943Z,24.90
2023-05-27T15:45:49.044Z,24.90
2023-05-27T15:48:25.736Z,24.90
2023-05-27T15:50:57.394Z,25.00
2023-05-27T15:53:26.453Z,25.00
2023-05-27T15:55:53.443Z,25.40
2023-05-27T15:58:20.633Z,25.40
2023-05-27T16:00:51.911Z,24.90
2023-05-27T16:03:26.450Z,25.40
2023-05-27T16:05:55.791Z,24.90
2023-05-27T16:08:22.700Z,24.90
2023-05-27T16:10:55.015Z,24.80
2023-05-27T16:13:29.920Z,24.40
2023-05-27T16:15:57.844Z,24.40
2023-05-27T16:18:27.812Z,24.40
2023-05-27T16:20:59.242Z,24.40
2023-05-27T16:23:28.462Z,24.40
2023-05-27T16:25:56.169Z,24.50
2023-05-27T16:28:23.981Z,24.60
2023-05-27T16:30:54.527Z,24.70
2023-05-27T16:33:24.180Z,24.80
2023-05-27T16:35:54.072Z,24.80
2023-05-27T16:38:23.395Z,25.00
2023-05-27T16:40:50.511Z,25.10
2023-05-27T16:43:17.627Z,25.10
2023-05-27T16:45:44.790Z,25.20
2023-05-27T16:48:12.084Z,25.30
2023-05-27T16:50:38.976Z,25.30
2023-05-27T16:53:13.151Z,25.90
2023-05-27T16:55:44.894Z,25.30
2023-05-27T16:58:14.377Z,25.20
2023-05-27T17:00:46.276Z,25.30
2023-05-27T17:03:13.266Z,25.40
2023-05-27T17:05:44.959Z,25.40
2023-05-27T17:08:14.389Z,25.50
2023-05-27T17:10:42.103Z,25.60
2023-05-27T17:13:12.278Z,25.70
2023-05-27T17:15:39.251Z,25.70
2023-05-27T17:18:10.986Z,25.80
2023-05-27T17:20:38.195Z,25.90
2023-05-27T17:23:05.294Z,26.50
2023-05-27T17:25:34.787Z,26.10
2023-05-27T17:28:08.508Z,26.20
2023-05-27T17:30:38.725Z,26.20
2023-05-27T17:33:11.546Z,26.30
2023-05-27T17:35:40.795Z,26.40
2023-05-27T17:38:10.754Z,26.40
2023-05-27T17:40:42.083Z,26.50
2023-05-27T17:43:09.005Z,26.60
2023-05-27T17:45:38.371Z,26.70
2023-05-27T17:48:11.621Z,26.80
2023-05-27T17:50:41.566Z,26.80
2023-05-27T17:53:10.676Z,26.90
2023-05-27T17:55:40.670Z,27.00
2023-05-27T17:58:12.131Z,27.00
2023-05-27T18:00:39.359Z,27.20
2023-05-27T18:03:09.133Z,27.20
2023-05-27T18:05:38.817Z,27.20
2023-05-27T18:08:08.117Z,27.40
2023-05-27T18:10:38.317Z,27.50
2023-05-27T18:13:05.328Z,27.60
2023-05-27T18:15:36.516Z,27.70
2023-05-27T18:18:03.603Z,27.70
2023-05-27T18:20:36.745Z,27.90
2023-05-27T18:23:04.091Z,28.00
2023-05-27T18:25:31.117Z,28.10
2023-05-27T18:28:00.827Z,28.30
2023-05-27T18:30:29.269Z,28.50
2023-05-27T18:33:00.438Z,28.40
2023-05-27T18:35:31.444Z,28.70
2023-05-27T18:38:02.277Z,28.60
2023-05-27T18:40:33.708Z,28.80
2023-05-27T18:43:03.159Z,28.90
2023-05-27T18:45:59.708Z,29.00
2023-05-27T18:48:31.824Z,29.60
2023-05-27T18:51:01.483Z,29.50
2023-05-27T18:53:30.506Z,29.50
2023-05-27T18:55:57.468Z,29.40
2023-05-27T18:58:26.559Z,29.60
2023-05-27T19:00:55.647Z,29.70
2023-05-27T19:03:22.501Z,29.80
2023-05-27T19:05:56.400Z,29.90
2023-05-27T19:08:23.437Z,30.00
2023-05-27T19:10:52.776Z,30.00
2023-05-27T19:13:22.104Z,30.00
2023-05-27T19:15:49.369Z,30.20
2023-05-27T19:18:21.472Z,30.20
2023-05-27T19:20:48.671Z,30.30
2023-05-27T19:23:20.181Z,30.30
2023-05-27T19:25:47.158Z,30.50
2023-05-27T19:28:14.035Z,30.60
2023-05-27T19:30:45.814Z,30.60
2023-05-27T19:33:17.693Z,30.80
2023-05-27T19:35:49.491Z,31.00
2023-05-27T19:38:16.452Z,31.10
2023-05-27T19:40:45.605Z,31.30
2023-05-27T19:43:12.520Z,31.40
2023-05-27T19:45:41.436Z,31.60
2023-05-27T19:48:08.383Z,31.80
2023-05-27T19:50:37.326Z,31.90
2023-05-27T19:53:04.282Z,32.00
2023-05-27T19:55:31.201Z,32.20
2023-05-27T19:57:58.084Z,32.30
2023-05-27T20:00:30.035Z,32.50
2023-05-27T20:02:59.348Z,33.00
2023-05-27T20:05:30.927Z,32.90
2023-05-27T20:07:59.877Z,32.90
2023-05-27T20:10:27.519Z,33.10
2023-05-27T20:12:59.498Z,33.20
2023-05-27T20:15:26.407Z,33.60
2023-05-27T20:18:00.203Z,33.50
2023-05-27T20:20:32.284Z,33.60
2023-05-27T20:23:01.467Z,33.70
2023-05-27T20:25:28.301Z,33.70
2023-05-27T20:27:55.368Z,34.50
2023-05-27T20:30:25.967Z,34.10
2023-05-27T20:32:53.467Z,34.20
2023-05-27T20:35:20.418Z,34.30
2023-05-27T20:37:49.866Z,34.40
2023-05-27T20:40:20.563Z,34.80
2023-05-27T20:42:52.224Z,34.70
2023-05-27T20:45:24.957Z,35.00
2023-05-27T20:47:54.473Z,34.90
2023-05-27T20:50:23.831Z,34.90
2023-05-27T20:52:55.107Z,35.20
2023-05-27T20:55:27.348Z,35.40
2023-05-27T20:57:54.325Z,35.40
2023-05-27T21:00:28.338Z,35.20
2023-05-27T21:02:55.508Z,35.30
2023-05-27T21:05:24.879Z,35.30
2023-05-27T21:07:51.848Z,35.40
2023-05-27T21:10:21.078Z,35.50
2023-05-27T21:12:48.060Z,35.50
2023-05-27T21:15:15.118Z,35.60
2023-05-27T21:17:42.049Z,35.60
2023-05-27T21:20:12.026Z,35.70
2023-05-27T21:22:43.381Z,36.20
2023-05-27T21:25:13.364Z,36.20
2023-05-27T21:27:47.820Z,36.00
2023-05-27T21:30:16.139Z,36.30
2023-05-27T21:32:43.087Z,36.10
2023-05-27T21:35:10.102Z,36.20
2023-05-27T21:37:41.261Z,36.30
2023-05-27T21:40:09.211Z,36.40
2023-05-27T21:42:36.027Z,36.40
2023-05-27T21:45:09.088Z,36.50
2023-05-27T21:47:40.825Z,36.60
2023-05-27T21:50:08.323Z,36.60
2023-05-27T21:52:39.775Z,36.80
2023-05-27T21:55:09.502Z,36.80
2023-05-27T21:57:39.019Z,37.00
2023-05-27T22:00:18.105Z,37.00
2023-05-27T22:02:48.112Z,37.20
2023-05-27T22:05:17.761Z,37.40
2023-05-27T22:07:49.813Z,38.10
2023-05-27T22:10:18.967Z,37.30
2023-05-27T22:12:45.998Z,37.30
2023-05-27T22:15:17.388Z,37.40
2023-05-27T22:17:46.625Z,37.60
2023-05-27T22:20:15.860Z,37.80
2023-05-27T22:22:50.373Z,37.50
2023-05-27T22:25:17.762Z,37.70
2023-05-27T22:27:44.758Z,37.70
2023-05-27T22:30:12.582Z,37.80
2023-05-27T22:32:42.118Z,38.00
2023-05-27T22:35:09.971Z,38.00
2023-05-27T22:37:39.894Z,38.10
2023-05-27T22:40:10.158Z,38.10
2023-05-27T22:42:39.734Z,38.10
2023-05-27T22:45:07.611Z,38.20
2023-05-27T22:47:37.552Z,38.30
2023-05-27T22:50:07.982Z,38.50
2023-05-27T22:52:37.002Z,38.30
2023-05-27T22:55:04.127Z,38.50
2023-05-27T22:57:31.089Z,38.50
2023-05-27T23:00:00.520Z,38.60
2023-05-27T23:02:31.208Z,38.80
2023-05-27T23:04:58.211Z,38.70
2023-05-27T23:07:29.650Z,38.70
2023-05-27T23:10:01.073Z,38.70
2023-05-27T23:12:28.024Z,38.80
2023-05-27T23:14:54.922Z,38.80
2023-05-27T23:17:24.259Z,38.90
2023-05-27T23:19:55.813Z,38.90
2023-05-27T23:22:22.667Z,39.00
2023-05-27T23:24:49.583Z,39.40
2023-05-27T23:27:16.602Z,39.00
2023-05-27T23:29:47.938Z,39.10
2023-05-27T23:32:19.115Z,39.20
2023-05-27T23:34:55.731Z,39.20
2023-05-27T23:37:22.654Z,39.20
2023-05-27T23:39:56.886Z,39.20
2023-05-27T23:42:23.856Z,39.30
2023-05-27T23:44:50.728Z,39.20
2023-05-27T23:47:22.140Z,39.40
2023-05-27T23:49:51.901Z,39.70
2023-05-27T23:52:21.706Z,39.50
2023-05-27T23:54:50.779Z,39.70
2023-05-27T23:57:18.811Z,39.60
